createdAt,value
2018-09-26T00:01:16.102Z,69.40
2018-09-26T00:04:03.975Z,69.20
2018-09-26T00:06:32.535Z,69.00
2018-09-26T00:09:01.769Z,69.60
2018-09-26T00:11:30.315Z,70.20
2018-09-26T00:13:58.859Z,70.80
2018-09-26T00:16:27.520Z,70.10
2018-09-26T00:18:56.338Z,70.80
2018-09-26T00:21:25.254Z,70.80
2018-09-26T00:23:53.818Z,70.50
2018-09-26T00:26:22.330Z,70.80
2018-09-26T00:28:50.961Z,71.00
2018-09-26T00:31:19.632Z,72.70
2018-09-26T00:33:48.163Z,73.00
2018-09-26T00:36:16.715Z,73.70
2018-09-26T00:38:45.386Z,73.70
2018-09-26T00:41:13.937Z,74.80
2018-09-26T00:43:42.553Z,75.30
2018-09-26T00:46:11.470Z,74.90
2018-09-26T00:48:40.300Z,75.40
2018-09-26T00:51:08.814Z,76.20
2018-09-26T00:53:37.356Z,76.10
2018-09-26T00:56:06.067Z,76.10
2018-09-26T00:58:34.692Z,77.30
2018-09-26T01:01:03.671Z,77.10
2018-09-26T01:03:32.351Z,78.30
2018-09-26T01:06:00.883Z,78.70
2018-09-26T01:08:29.437Z,80.60
2018-09-26T01:10:58.053Z,81.30
2018-09-26T01:13:26.582Z,82.50
2018-09-26T01:15:55.148Z,83.80
2018-09-26T01:18:23.719Z,84.60
2018-09-26T01:20:52.216Z,86.10
2018-09-26T01:23:20.856Z,87.00
2018-09-26T01:25:49.386Z,88.20
2018-09-26T01:28:19.127Z,89.60
2018-09-26T01:30:47.635Z,90.00
2018-09-26T01:33:16.401Z,90.50
2018-09-26T01:35:44.897Z,90.60
2018-09-26T01:38:13.435Z,90.00
2018-09-26T01:40:42.601Z,90.60
2018-09-26T01:43:11.344Z,91.40
2018-09-26T01:45:40.003Z,91.70
2018-09-26T01:48:08.519Z,91.70
2018-09-26T01:50:37.075Z,91.80
2018-09-26T01:53:05.619Z,92.50
2018-09-26T01:55:35.534Z,92.90
2018-09-26T01:58:04.102Z,93.20
2018-09-26T02:00:32.760Z,93.50
2018-09-26T02:03:01.360Z,93.50
2018-09-26T02:05:29.881Z,93.70
2018-09-26T02:07:58.426Z,93.80
2018-09-26T02:10:27.644Z,94.00
2018-09-26T02:12:56.218Z,94.00
2018-09-26T02:15:24.736Z,94.00
2018-09-26T02:17:53.240Z,94.10
2018-09-26T02:20:21.799Z,94.20
2018-09-26T02:22:50.371Z,94.20
2018-09-26T02:25:18.915Z,94.30
2018-09-26T02:27:47.453Z,94.10
2018-09-26T02:30:16.454Z,94.20
2018-09-26T02:32:44.974Z,94.30
2018-09-26T02:35:13.544Z,94.40
2018-09-26T02:37:42.057Z,94.40
2018-09-26T02:40:11.417Z,94.50
2018-09-26T02:42:39.910Z,94.50
2018-09-26T02:45:08.463Z,94.40
2018-09-26T02:47:37.005Z,94.10
2018-09-26T02:50:05.618Z,94.10
2018-09-26T02:52:34.119Z,94.40
2018-09-26T02:55:04.019Z,94.40
2018-09-26T02:57:32.653Z,94.30
2018-09-26T03:00:01.202Z,94.50
2018-09-26T03:02:30.318Z,94.30
2018-09-26T03:04:58.854Z,94.30
2018-09-26T03:07:27.399Z,94.20
2018-09-26T03:09:56.702Z,94.00
2018-09-26T03:12:25.746Z,94.10
2018-09-26T03:14:54.338Z,94.40
2018-09-26T03:17:22.849Z,94.10
2018-09-26T03:19:51.525Z,94.20
2018-09-26T03:22:20.667Z,94.10
2018-09-26T03:24:49.230Z,94.00
2018-09-26T03:27:17.789Z,94.00
2018-09-26T03:29:46.375Z,93.70
2018-09-26T03:32:14.919Z,93.60
2018-09-26T03:34:43.527Z,93.70
2018-09-26T03:37:12.395Z,93.80
2018-09-26T03:39:41.231Z,93.40
2018-09-26T03:42:09.750Z,93.90
2018-09-26T03:44:38.310Z,93.80
2018-09-26T03:47:07.024Z,94.40
2018-09-26T03:49:35.594Z,94.30
2018-09-26T03:52:04.347Z,94.80
2018-09-26T03:54:32.952Z,95.10
2018-09-26T03:57:03.522Z,94.80
2018-09-26T03:59:32.877Z,94.80
2018-09-26T04:02:01.956Z,94.90
2018-09-26T04:04:30.523Z,95.00
2018-09-26T04:06:59.822Z,95.40
2018-09-26T04:09:31.075Z,95.60
2018-09-26T04:12:00.111Z,95.70
2018-09-26T04:14:29.399Z,95.60
2018-09-26T04:16:57.977Z,95.70
2018-09-26T04:19:27.385Z,95.40
2018-09-26T04:21:56.391Z,95.00
2018-09-26T04:24:25.890Z,94.70
2018-09-26T04:26:55.317Z,94.50
2018-09-26T04:29:23.636Z,95.00
2018-09-26T04:31:52.706Z,95.20
2018-09-26T04:34:21.407Z,95.20
2018-09-26T04:36:49.982Z,94.90
2018-09-26T04:39:18.499Z,95.00
2018-09-26T04:41:48.418Z,95.40
2018-09-26T04:44:17.312Z,94.90
2018-09-26T04:46:45.903Z,95.40
2018-09-26T04:49:14.582Z,95.30
2018-09-26T04:51:43.165Z,95.00
2018-09-26T04:54:11.838Z,95.20
2018-09-26T04:56:40.458Z,95.00
2018-09-26T04:59:09.270Z,95.00
2018-09-26T05:01:37.881Z,95.20
2018-09-26T05:04:06.700Z,95.00
2018-09-26T05:06:35.315Z,95.00
2018-09-26T05:09:04.142Z,95.00
2018-09-26T05:11:32.724Z,95.50
2018-09-26T05:14:01.281Z,95.50
2018-09-26T05:16:31.628Z,95.40
2018-09-26T05:19:00.183Z,95.10
2018-09-26T05:21:28.742Z,95.10
2018-09-26T05:23:57.318Z,95.10
2018-09-26T05:26:25.970Z,95.20
2018-09-26T05:28:55.044Z,94.90
2018-09-26T05:31:23.991Z,94.50
2018-09-26T05:33:52.561Z,94.20
2018-09-26T05:36:21.111Z,93.70
2018-09-26T05:38:49.821Z,93.50
2018-09-26T05:41:18.591Z,93.50
2018-09-26T05:43:47.365Z,92.80
2018-09-26T05:46:16.502Z,91.90
2018-09-26T05:48:45.356Z,91.80
2018-09-26T05:51:13.932Z,91.50
2018-09-26T05:53:42.702Z,91.20
2018-09-26T05:56:11.251Z,90.80
2018-09-26T05:58:40.486Z,90.50
2018-09-26T06:01:09.103Z,90.30
2018-09-26T06:03:37.708Z,90.30
2018-09-26T06:06:06.304Z,89.80
2018-09-26T06:08:34.822Z,90.40
2018-09-26T06:11:03.386Z,90.20
2018-09-26T06:13:32.122Z,90.50
2018-09-26T06:16:01.866Z,90.70
2018-09-26T06:18:30.970Z,90.80
2018-09-26T06:20:59.698Z,91.00
2018-09-26T06:23:28.371Z,90.70
2018-09-26T06:25:56.962Z,90.70
2018-09-26T06:28:25.538Z,90.10
2018-09-26T06:30:54.487Z,90.10
2018-09-26T06:33:24.166Z,89.10
2018-09-26T06:35:53.450Z,88.50
2018-09-26T06:38:21.967Z,87.70
2018-09-26T06:40:50.518Z,86.30
2018-09-26T06:43:19.014Z,86.30
2018-09-26T06:45:47.585Z,85.60
2018-09-26T06:48:16.122Z,85.20
2018-09-26T06:50:44.699Z,85.00
2018-09-26T06:53:14.878Z,85.20
2018-09-26T06:55:44.304Z,84.70
2018-09-26T06:58:14.694Z,84.20
2018-09-26T07:00:43.348Z,83.90
2018-09-26T07:03:11.903Z,83.10
2018-09-26T07:05:40.405Z,82.60
2018-09-26T07:08:08.983Z,82.70
2018-09-26T07:10:37.539Z,82.00
2018-09-26T07:13:06.213Z,81.30
2018-09-26T07:15:34.740Z,80.40
2018-09-26T07:18:03.324Z,80.10
2018-09-26T07:20:31.864Z,78.80
2018-09-26T07:23:00.455Z,78.40
2018-09-26T07:25:28.959Z,77.10
2018-09-26T07:27:57.564Z,76.30
2018-09-26T07:30:27.023Z,75.60
2018-09-26T07:32:55.638Z,75.50
2018-09-26T07:35:24.142Z,74.10
2018-09-26T07:37:53.443Z,72.60
2018-09-26T07:40:22.033Z,72.00
2018-09-26T07:42:50.920Z,71.10
2018-09-26T07:45:19.665Z,69.90
2018-09-26T07:47:48.242Z,69.90
2018-09-26T07:50:17.013Z,70.00
2018-09-26T07:52:47.033Z,70.00
2018-09-26T07:55:15.907Z,69.50
2018-09-26T07:57:44.477Z,69.50
2018-09-26T08:00:13.022Z,67.70
2018-09-26T08:02:42.287Z,65.80
2018-09-26T08:05:11.475Z,65.10
2018-09-26T08:07:40.093Z,63.90
2018-09-26T08:10:09.352Z,62.40
2018-09-26T08:12:37.917Z,61.60
2018-09-26T08:15:06.509Z,60.90
2018-09-26T08:17:35.131Z,60.70
2018-09-26T08:20:03.716Z,58.90
2018-09-26T08:22:32.386Z,57.70
2018-09-26T08:25:01.168Z,56.30
2018-09-26T08:27:29.803Z,55.60
2018-09-26T08:29:59.097Z,55.10
2018-09-26T08:32:28.447Z,53.30
2018-09-26T08:34:57.073Z,51.70
2018-09-26T08:37:25.652Z,50.40
2018-09-26T08:39:54.234Z,50.40
2018-09-26T08:42:22.794Z,50.60
2018-09-26T08:44:52.184Z,49.20
2018-09-26T08:47:20.699Z,47.90
2018-09-26T08:49:49.704Z,46.80
2018-09-26T08:52:19.685Z,45.30
2018-09-26T08:54:48.218Z,44.80
2018-09-26T08:57:16.735Z,44.70
2018-09-26T08:59:45.501Z,45.00
2018-09-26T09:02:14.008Z,45.30
2018-09-26T09:04:43.048Z,45.90
2018-09-26T09:07:11.774Z,46.10
2018-09-26T09:09:40.360Z,44.50
2018-09-26T09:12:08.858Z,42.40
2018-09-26T09:14:37.552Z,40.60
2018-09-26T09:17:06.337Z,41.00
2018-09-26T09:19:34.920Z,38.30
2018-09-26T09:22:03.433Z,38.40
2018-09-26T09:24:32.006Z,36.80
2018-09-26T09:27:00.839Z,36.40
2018-09-26T09:29:29.735Z,34.80
2018-09-26T09:31:58.279Z,33.90
2018-09-26T09:34:27.050Z,34.00
2018-09-26T09:36:55.543Z,34.70
2018-09-26T09:39:24.115Z,32.00
2018-09-26T09:41:52.614Z,30.80
2018-09-26T09:44:21.170Z,31.40
2018-09-26T09:46:49.754Z,31.10
2018-09-26T09:49:18.998Z,30.30
2018-09-26T09:51:47.523Z,28.60
2018-09-26T09:54:16.872Z,28.90
2018-09-26T09:56:45.979Z,28.40
2018-09-26T09:59:14.547Z,27.90
2018-09-26T10:01:43.062Z,28.30
2018-09-26T10:04:11.630Z,27.00
2018-09-26T10:06:40.137Z,26.50
2018-09-26T10:09:09.140Z,26.60
2018-09-26T10:11:38.283Z,26.70
2018-09-26T10:14:06.947Z,26.60
2018-09-26T10:16:35.389Z,26.70
2018-09-26T10:19:03.985Z,25.80
2018-09-26T10:21:32.485Z,26.70
2018-09-26T10:24:01.071Z,26.70
2018-09-26T10:26:29.570Z,25.70
2018-09-26T10:28:58.221Z,26.10
2018-09-26T10:31:28.089Z,25.40
2018-09-26T10:34:03.388Z,26.50
2018-09-26T10:36:31.894Z,24.80
2018-09-26T10:39:00.495Z,25.00
2018-09-26T10:41:29.100Z,25.20
2018-09-26T10:43:57.838Z,25.00
2018-09-26T10:46:26.375Z,24.70
2018-09-26T10:48:54.993Z,23.20
2018-09-26T10:51:23.486Z,23.50
2018-09-26T10:53:52.310Z,23.90
2018-09-26T10:56:21.060Z,23.00
2018-09-26T10:58:49.758Z,21.80
2018-09-26T11:01:18.290Z,23.20
2018-09-26T11:03:46.881Z,22.80
2018-09-26T11:06:15.481Z,22.90
2018-09-26T11:08:44.046Z,22.90
2018-09-26T11:11:12.648Z,22.90
2018-09-26T11:13:41.926Z,22.80
2018-09-26T11:16:10.611Z,22.30
2018-09-26T11:18:39.235Z,21.80
2018-09-26T11:21:08.732Z,22.50
2018-09-26T11:23:37.247Z,22.70
2018-09-26T11:26:06.094Z,24.20
2018-09-26T11:28:35.543Z,24.00
2018-09-26T11:31:04.059Z,22.60
2018-09-26T11:33:32.741Z,22.00
2018-09-26T11:36:01.193Z,22.80
2018-09-26T11:38:29.840Z,23.80
2018-09-26T11:40:58.408Z,23.40
2018-09-26T11:43:27.616Z,23.60
2018-09-26T11:45:57.096Z,22.30
2018-09-26T11:48:25.598Z,23.40
2018-09-26T11:50:54.269Z,22.00
2018-09-26T11:53:22.970Z,22.00
2018-09-26T11:55:51.585Z,22.40
2018-09-26T11:58:20.196Z,22.30
2018-09-26T12:00:49.519Z,22.90
2018-09-26T12:03:18.340Z,20.90
2018-09-26T12:05:46.856Z,22.10
2018-09-26T12:08:15.516Z,21.40
2018-09-26T12:10:44.262Z,21.00
2018-09-26T12:13:12.827Z,22.40
2018-09-26T12:15:41.448Z,22.80
2018-09-26T12:18:10.153Z,22.60
2018-09-26T12:20:38.666Z,23.50
2018-09-26T12:23:07.559Z,24.00
2018-09-26T12:25:36.198Z,24.10
2018-09-26T12:28:04.812Z,23.30
2018-09-26T12:30:33.347Z,23.20
2018-09-26T12:33:02.096Z,21.20
2018-09-26T12:35:30.677Z,24.00
2018-09-26T12:37:59.336Z,22.60
2018-09-26T12:40:27.964Z,22.40
2018-09-26T12:42:57.170Z,22.70
2018-09-26T12:45:26.321Z,23.50
2018-09-26T12:47:54.941Z,24.40
2018-09-26T12:50:23.556Z,24.40
2018-09-26T12:52:52.294Z,25.30
2018-09-26T12:55:20.816Z,24.70
2018-09-26T12:57:49.385Z,24.90
2018-09-26T13:00:18.419Z,25.70
2018-09-26T13:02:47.321Z,24.50
2018-09-26T13:05:15.811Z,24.90
2018-09-26T13:07:45.068Z,25.10
2018-09-26T13:10:13.659Z,24.80
2018-09-26T13:12:42.253Z,25.30
2018-09-26T13:15:11.757Z,25.00
2018-09-26T13:17:40.362Z,26.00
2018-09-26T13:20:09.092Z,26.70
2018-09-26T13:22:37.643Z,26.70
2018-09-26T13:25:06.289Z,26.70
2018-09-26T13:27:34.856Z,25.40
2018-09-26T13:30:03.504Z,24.90
2018-09-26T13:32:32.760Z,24.80
2018-09-26T13:35:01.516Z,25.50
2018-09-26T13:37:30.199Z,25.30
2018-09-26T13:39:58.767Z,24.50
2018-09-26T13:42:27.504Z,23.90
2018-09-26T13:44:56.351Z,24.60
2018-09-26T13:47:25.098Z,25.10
2018-09-26T13:49:53.736Z,24.80
2018-09-26T13:52:22.645Z,25.20
2018-09-26T13:54:51.295Z,24.30
2018-09-26T13:57:19.891Z,24.70
2018-09-26T13:59:48.453Z,25.50
2018-09-26T14:02:17.109Z,23.90
2018-09-26T14:04:45.881Z,25.00
2018-09-26T14:07:14.444Z,23.70
2018-09-26T14:09:43.052Z,23.70
2018-09-26T14:12:12.327Z,24.70
2018-09-26T14:14:41.584Z,24.10
2018-09-26T14:17:10.349Z,24.60
2018-09-26T14:19:38.967Z,24.20
2018-09-26T14:22:07.632Z,24.30
2018-09-26T14:24:36.507Z,25.00
2018-09-26T14:27:05.115Z,25.30
2018-09-26T14:29:33.656Z,24.90
2018-09-26T14:32:02.614Z,24.40
2018-09-26T14:34:31.196Z,24.10
2018-09-26T14:36:59.819Z,24.50
2018-09-26T14:39:28.504Z,24.80
2018-09-26T14:41:57.105Z,24.80
2018-09-26T14:44:25.847Z,25.30
2018-09-26T14:46:54.359Z,25.80
2018-09-26T14:49:22.970Z,25.70
2018-09-26T14:51:51.515Z,25.50
2018-09-26T14:54:20.315Z,25.20
2018-09-26T14:56:49.003Z,25.70
2018-09-26T14:59:18.538Z,27.30
2018-09-26T15:01:47.189Z,26.20
2018-09-26T15:04:15.959Z,26.20
2018-09-26T15:06:44.782Z,27.10
2018-09-26T15:09:13.468Z,27.00
2018-09-26T15:11:42.090Z,27.00
2018-09-26T15:14:10.709Z,26.90
2018-09-26T15:16:39.247Z,27.00
2018-09-26T15:19:08.183Z,26.80
2018-09-26T15:21:37.095Z,27.00
2018-09-26T15:24:05.887Z,27.80
2018-09-26T15:26:34.438Z,27.20
2018-09-26T15:29:03.860Z,27.80
2018-09-26T15:31:32.509Z,28.30
2018-09-26T15:34:01.192Z,28.10
2018-09-26T15:36:29.788Z,28.20
2018-09-26T15:38:58.424Z,28.80
2018-09-26T15:41:26.976Z,28.40
2018-09-26T15:43:55.675Z,28.30
2018-09-26T15:46:24.411Z,28.40
2018-09-26T15:48:52.924Z,28.40
2018-09-26T15:51:21.593Z,29.70
2018-09-26T15:53:50.429Z,29.30
2018-09-26T15:56:19.025Z,29.30
2018-09-26T15:58:47.702Z,30.10
2018-09-26T16:01:16.463Z,29.60
2018-09-26T16:03:45.561Z,29.80
2018-09-26T16:06:14.364Z,29.70
2018-09-26T16:08:42.937Z,29.70
2018-09-26T16:11:12.104Z,30.70
2018-09-26T16:13:41.145Z,30.70
2018-09-26T16:16:10.496Z,29.90
2018-09-26T16:18:39.929Z,29.70
2018-09-26T16:21:08.854Z,29.60
2018-09-26T16:23:37.437Z,30.20
2018-09-26T16:26:06.324Z,30.90
2018-09-26T16:28:34.878Z,30.30
2018-09-26T16:31:03.599Z,31.60
2018-09-26T16:33:32.234Z,31.60
2018-09-26T16:36:00.948Z,31.50
2018-09-26T16:38:29.509Z,31.30
2018-09-26T16:40:58.229Z,31.40
2018-09-26T16:43:26.983Z,33.20
2018-09-26T16:45:55.539Z,33.10
2018-09-26T16:48:24.219Z,34.80
2018-09-26T16:50:53.041Z,35.20
2018-09-26T16:53:21.816Z,35.00
2018-09-26T16:55:50.425Z,36.30
2018-09-26T16:58:19.840Z,35.80
2018-09-26T17:00:48.749Z,36.60
2018-09-26T17:03:17.366Z,37.70
2018-09-26T17:05:45.997Z,36.90
2018-09-26T17:08:15.058Z,37.70
2018-09-26T17:10:43.639Z,37.90
2018-09-26T17:13:12.259Z,37.80
2018-09-26T17:15:40.854Z,37.80
2018-09-26T17:18:10.778Z,37.80
2018-09-26T17:20:39.286Z,36.80
2018-09-26T17:23:08.118Z,37.70
2018-09-26T17:25:36.944Z,38.60
2018-09-26T17:28:05.686Z,37.60
2018-09-26T17:30:34.182Z,37.60
2018-09-26T17:33:03.322Z,37.60
2018-09-26T17:35:32.054Z,37.60
2018-09-26T17:38:01.160Z,37.50
2018-09-26T17:40:29.746Z,37.50
2018-09-26T17:42:58.540Z,37.40
2018-09-26T17:45:27.157Z,37.40
2018-09-26T17:47:55.832Z,37.30
2018-09-26T17:50:24.548Z,37.30
2018-09-26T17:52:53.500Z,38.10
2018-09-26T17:55:22.063Z,39.80
2018-09-26T17:57:50.695Z,39.50
2018-09-26T18:00:19.411Z,40.20
2018-09-26T18:02:48.249Z,40.10
2018-09-26T18:05:17.730Z,39.90
2018-09-26T18:07:46.354Z,39.80
2018-09-26T18:10:15.028Z,39.50
2018-09-26T18:12:44.268Z,40.20
2018-09-26T18:15:12.800Z,41.00
2018-09-26T18:17:42.432Z,41.10
2018-09-26T18:20:11.860Z,40.90
2018-09-26T18:22:40.679Z,40.90
2018-09-26T18:25:09.564Z,40.70
2018-09-26T18:27:38.267Z,40.90
2018-09-26T18:30:07.259Z,41.00
2018-09-26T18:32:36.499Z,41.90
2018-09-26T18:35:05.089Z,41.70
2018-09-26T18:37:33.964Z,41.40
2018-09-26T18:40:02.684Z,41.40
2018-09-26T18:42:31.329Z,41.90
2018-09-26T18:45:00.466Z,41.00
2018-09-26T18:47:29.843Z,40.90
2018-09-26T18:49:58.700Z,40.90
2018-09-26T18:52:27.334Z,40.60
2018-09-26T18:54:56.072Z,40.40
2018-09-26T18:57:24.956Z,40.70
2018-09-26T18:59:53.670Z,40.70
2018-09-26T19:02:22.258Z,40.30
2018-09-26T19:04:50.985Z,40.30
2018-09-26T19:07:20.328Z,39.70
2018-09-26T19:09:48.971Z,40.20
2018-09-26T19:12:17.611Z,39.80
2018-09-26T19:14:46.138Z,39.10
2018-09-26T19:17:14.805Z,39.80
2018-09-26T19:19:43.386Z,39.80
2018-09-26T19:22:12.871Z,39.20
2018-09-26T19:24:41.577Z,39.10
2018-09-26T19:27:10.976Z,40.20
2018-09-26T19:29:39.723Z,39.50
2018-09-26T19:32:08.421Z,39.50
2018-09-26T19:34:36.983Z,39.30
2018-09-26T19:37:05.895Z,39.40
2018-09-26T19:39:34.568Z,39.70
2018-09-26T19:42:03.201Z,39.00
2018-09-26T19:44:31.825Z,39.00
2018-09-26T19:47:00.651Z,40.00
2018-09-26T19:49:30.028Z,39.70
2018-09-26T19:51:58.961Z,38.50
2018-09-26T19:54:27.833Z,38.80
2018-09-26T19:56:56.681Z,39.70
2018-09-26T19:59:25.464Z,39.40
2018-09-26T20:01:54.105Z,38.70
2018-09-26T20:04:23.329Z,37.60
2018-09-26T20:06:52.097Z,37.30
2018-09-26T20:09:20.629Z,38.80
2018-09-26T20:11:49.413Z,39.40
2018-09-26T20:14:18.017Z,38.60
2018-09-26T20:16:46.730Z,38.30
2018-09-26T20:19:15.431Z,37.50
2018-09-26T20:21:44.707Z,37.70
2018-09-26T20:24:13.391Z,36.70
2018-09-26T20:26:42.111Z,36.60
2018-09-26T20:29:10.798Z,36.60
2018-09-26T20:31:39.373Z,36.60
2018-09-26T20:34:08.531Z,36.70
2018-09-26T20:36:37.167Z,36.70
2018-09-26T20:39:09.226Z,36.80
2018-09-26T20:41:38.064Z,36.80
2018-09-26T20:44:07.628Z,36.90
2018-09-26T20:46:36.270Z,36.90
2018-09-26T20:49:04.848Z,36.90
2018-09-26T20:51:33.807Z,36.90
2018-09-26T20:54:02.840Z,37.20
2018-09-26T20:56:31.489Z,36.90
2018-09-26T20:59:00.106Z,37.00
2018-09-26T21:01:29.051Z,37.20
2018-09-26T21:03:57.644Z,37.20
2018-09-26T21:06:26.407Z,36.20
2018-09-26T21:08:55.092Z,34.90
2018-09-26T21:11:23.719Z,35.20
2018-09-26T21:13:52.941Z,35.20
2018-09-26T21:16:21.853Z,34.80
2018-09-26T21:18:50.504Z,35.10
2018-09-26T21:21:19.743Z,35.20
2018-09-26T21:23:48.356Z,35.10
2018-09-26T21:26:16.955Z,34.40
2018-09-26T21:28:45.567Z,34.30
2018-09-26T21:31:14.153Z,34.60
2018-09-26T21:33:43.011Z,34.20
2018-09-26T21:36:12.927Z,34.20
2018-09-26T21:38:42.089Z,33.20
2018-09-26T21:41:11.400Z,33.50
2018-09-26T21:43:39.996Z,33.60
2018-09-26T21:46:09.138Z,34.10
2018-09-26T21:48:39.481Z,34.00
2018-09-26T21:51:08.191Z,34.20
2018-09-26T21:53:37.057Z,33.00
2018-09-26T21:56:06.331Z,33.10
2018-09-26T21:58:34.880Z,34.20
2018-09-26T22:01:04.817Z,32.10
2018-09-26T22:03:34.337Z,32.10
2018-09-26T22:06:02.908Z,32.60
2018-09-26T22:08:31.574Z,32.30
2018-09-26T22:11:00.301Z,32.40
2018-09-26T22:13:28.934Z,32.50
2018-09-26T22:15:57.517Z,31.10
2018-09-26T22:18:26.040Z,31.30
2018-09-26T22:20:54.622Z,32.00
2018-09-26T22:23:23.269Z,31.40
2018-09-26T22:25:51.990Z,30.60
2018-09-26T22:28:20.653Z,30.60
2018-09-26T22:30:49.597Z,30.60
2018-09-26T22:33:18.228Z,30.60
2018-09-26T22:35:46.922Z,30.60
2018-09-26T22:38:15.992Z,30.50
2018-09-26T22:40:44.910Z,30.00
2018-09-26T22:43:13.591Z,30.00
2018-09-26T22:45:42.119Z,29.90
2018-09-26T22:48:11.848Z,30.00
2018-09-26T22:50:41.391Z,30.70
2018-09-26T22:53:10.287Z,30.30
2018-09-26T22:55:38.888Z,30.40
2018-09-26T22:58:07.521Z,30.70
2018-09-26T23:00:36.042Z,30.00
2018-09-26T23:03:04.636Z,29.70
2018-09-26T23:05:34.086Z,29.80
2018-09-26T23:08:02.729Z,29.40
2018-09-26T23:10:31.262Z,29.40
2018-09-26T23:12:59.814Z,30.00
2018-09-26T23:15:29.634Z,29.70
2018-09-26T23:17:58.231Z,29.10
2018-09-26T23:20:28.135Z,29.40
2018-09-26T23:22:57.672Z,28.90
2018-09-26T23:25:26.287Z,28.90
2018-09-26T23:27:55.050Z,29.00
2018-09-26T23:30:23.611Z,29.10
2018-09-26T23:32:52.099Z,29.50
2018-09-26T23:35:20.684Z,29.20
2018-09-26T23:37:49.182Z,29.00
2018-09-26T23:40:17.749Z,28.10
2018-09-26T23:42:46.278Z,28.10
2018-09-26T23:45:15.594Z,28.80
2018-09-26T23:47:44.126Z,28.70
2018-09-26T23:50:14.062Z,28.20
2018-09-26T23:52:43.000Z,28.60
2018-09-26T23:55:11.584Z,28.20
2018-09-26T23:57:40.188Z,27.50
